Terminal Aerodrome Forecast
Issued by NWS Lake Charles, LA

Home | Current Version | Previous Version | Text Only | Print | Product List | Glossary On
Versions: 1 2 3 4 5 6 7 8 9 10 11 12 13 14 15 16 17 18 19 20
089
FTUS44 KLCH 300520
TAFBPT
TAF
KBPT 300520Z 3006/0106 16018G26KT 6SM -SHRA BR VCTS OVC015CB
      TEMPO 3008/3011 VRB20G30KT 1SM +TSRA BKN008CB OVC015
     FM301100 33016G22KT 6SM -SHRA BR OVC025
     FM301400 32010KT P6SM VCSH SCT025 BKN050
     FM301700 30012KT P6SM SCT200
     FM010000 31005KT P6SM SKC=

USA.gov is the U.S. government's official web portal to all federal, state and local government web resources and services.